Time;durP1;ratioP1;P1;durP2;ratioP2;P2;SDS_P1;SDS_P2;PMS_P1;PMS_P2;Temp;Humidity;BMP_temperature;BMP_pressure;BME280_temperature;BME280_humidity;BME280_pressure;Samples;Min_cycle;Max_cycle;Signal;HPM_P1;HPM_P2
2021/07/03 00:01:20;;;;;;;30.50;8.58;;;;;;;18.83;100.00;100048.61;1772586;78;21325;-58
2021/07/03 00:03:47;;;;;;;19.25;7.47;;;;;;;18.82;100.00;100048.23;1792709;79;21015;-58
2021/07/03 00:06:13;;;;;;;17.48;7.97;;;;;;;18.79;100.00;100049.34;1785775;79;20976;-65
2021/07/03 00:08:41;;;;;;;16.75;7.92;;;;;;;18.77;100.00;100043.17;1781273;78;20944;-65
2021/07/03 00:11:08;;;;;;;19.98;8.28;;;;;;;18.75;100.00;100047.86;1786588;78;21051;-65
2021/07/03 00:13:36;;;;;;;18.50;7.90;;;;;;;18.74;100.00;100046.14;1782561;78;21449;-65
2021/07/03 00:16:05;;;;;;;13.25;7.87;;;;;;;18.73;100.00;100051.20;1781154;79;20924;-65
2021/07/03 00:18:32;;;;;;;16.85;7.28;;;;;;;18.70;100.00;100048.23;1766947;78;21010;-58
2021/07/03 00:20:59;;;;;;;16.80;7.60;;;;;;;18.70;100.00;100050.09;1787692;79;21444;-58
2021/07/03 00:23:25;;;;;;;15.68;6.83;;;;;;;18.68;100.00;100050.20;1781268;78;21410;-56
2021/07/03 00:25:52;;;;;;;18.82;7.72;;;;;;;18.67;100.00;100054.39;1781303;79;21266;-64
2021/07/03 00:28:18;;;;;;;18.40;7.22;;;;;;;18.67;100.00;100044.88;1793619;79;21022;-64
2021/07/03 00:30:45;;;;;;;11.05;6.40;;;;;;;18.64;100.00;100054.64;1785180;79;22336;-66
2021/07/03 00:33:12;;;;;;;11.75;6.35;;;;;;;18.61;100.00;100049.83;1811300;77;21518;-66
2021/07/03 00:35:39;;;;;;;14.58;6.92;;;;;;;18.60;100.00;100050.81;1826597;77;21063;-67
2021/07/03 00:38:09;;;;;;;11.73;6.10;;;;;;;18.59;100.00;100046.89;1818306;77;21536;-59
2021/07/03 00:40:35;;;;;;;13.28;6.12;;;;;;;18.58;100.00;100051.95;1796741;78;20892;-59
2021/07/03 00:43:02;;;;;;;10.28;6.15;;;;;;;18.58;100.00;100054.66;1818780;77;20928;-66
2021/07/03 00:45:30;;;;;;;10.65;6.05;;;;;;;18.55;100.00;100050.33;1822582;77;21869;-59
2021/07/03 00:47:58;;;;;;;12.18;6.05;;;;;;;18.53;100.00;100050.95;1812083;77;21081;-58
2021/07/03 00:50:25;;;;;;;8.18;5.17;;;;;;;18.51;100.00;100054.28;1819484;77;21651;-58
2021/07/03 00:52:52;;;;;;;13.28;5.45;;;;;;;18.49;100.00;100049.47;1817332;77;21465;-58
2021/07/03 00:55:20;;;;;;;14.73;6.15;;;;;;;18.46;100.00;100040.22;1776937;78;21048;-59
2021/07/03 00:57:47;;;;;;;9.70;5.40;;;;;;;18.44;100.00;100042.16;1816558;77;21067;-65
2021/07/03 01:00:15;;;;;;;10.15;5.53;;;;;;;18.39;100.00;100035.77;1820842;77;21460;-64
2021/07/03 01:02:41;;;;;;;13.45;4.92;;;;;;;18.37;100.00;100032.80;1814377;77;21456;-59
2021/07/03 01:05:09;;;;;;;9.48;4.85;;;;;;;18.35;100.00;100038.84;1808024;77;21418;-57
2021/07/03 01:07:36;;;;;;;8.98;5.30;;;;;;;18.33;100.00;100035.75;1816490;77;21085;-58
2021/07/03 01:10:08;;;;;;;13.60;5.87;;;;;;;18.33;100.00;100035.75;1824084;77;20992;-57
2021/07/03 01:12:36;;;;;;;10.60;5.05;;;;;;;18.32;100.00;100033.15;1827552;77;21415;-65
2021/07/03 01:15:04;;;;;;;11.30;4.92;;;;;;;18.32;100.00;100038.09;1833222;77;21453;-67
2021/07/03 01:17:32;;;;;;;12.98;5.30;;;;;;;18.32;100.00;100038.09;1809429;77;21075;-57
2021/07/03 01:20:00;;;;;;;13.25;4.95;;;;;;;18.32;100.00;100036.73;1823696;77;20988;-57
2021/07/03 01:22:28;;;;;;;9.13;5.00;;;;;;;18.34;100.00;100040.67;1820312;77;20971;-58
2021/07/03 01:24:55;;;;;;;13.98;5.47;;;;;;;18.36;100.00;100039.20;1815530;77;21647;-57
2021/07/03 01:27:22;;;;;;;9.65;5.65;;;;;;;18.38;100.00;100044.89;1793691;77;21150;-58
2021/07/03 01:29:48;;;;;;;11.57;4.75;;;;;;;18.40;100.00;100048.83;1819589;77;20921;-57
2021/07/03 01:32:16;;;;;;;12.78;5.22;;;;;;;18.39;100.00;100049.81;1820190;77;20940;-57
2021/07/03 01:34:44;;;;;;;11.35;5.20;;;;;;;18.39;100.00;100048.45;1785000;78;20937;-58
2021/07/03 01:37:12;;;;;;;7.37;4.75;;;;;;;18.39;100.00;100051.17;1766223;79;21469;-57
2021/07/03 01:39:40;;;;;;;9.98;4.55;;;;;;;18.38;100.00;100048.09;1772368;79;21045;-58
2021/07/03 01:42:09;;;;;;;9.90;4.70;;;;;;;18.36;100.00;100051.42;1781485;79;20998;-57
2021/07/03 01:44:36;;;;;;;9.28;4.78;;;;;;;18.33;100.00;100047.97;1779139;79;20962;-57
2021/07/03 01:47:03;;;;;;;13.13;4.70;;;;;;;18.30;100.00;100043.27;1784196;79;21029;-57
2021/07/03 01:49:39;;;;;;;11.53;5.17;;;;;;;18.28;100.00;100046.11;1777061;79;21039;-57
2021/07/03 01:52:06;;;;;;;;;;;;;;;18.27;100.00;100044.39;1784362;79;20948;-58
2021/07/03 01:54:34;;;;;;;12.30;4.92;;;;;;;18.23;100.00;100042.03;1781736;79;20156;-58
2021/07/03 01:57:03;;;;;;;13.40;5.10;;;;;;;18.20;100.00;100043.63;1782250;79;21795;-57
2021/07/03 01:59:32;;;;;;;14.35;5.20;;;;;;;18.15;100.00;100040.80;1782330;79;21231;-58
2021/07/03 02:02:02;;;;;;;12.63;5.17;;;;;;;18.14;100.00;100047.68;1778842;79;21081;-65
2021/07/03 02:04:32;;;;;;;9.50;5.22;;;;;;;18.11;100.00;100041.14;1762689;80;21347;-64
2021/07/03 02:06:59;;;;;;;12.90;5.42;;;;;;;18.10;100.00;100043.48;1776364;79;21010;-64
2021/07/03 02:09:28;;;;;;;13.03;5.45;;;;;;;18.09;100.00;100045.83;1766478;79;21431;-64
2021/07/03 02:11:57;;;;;;;11.35;5.17;;;;;;;18.07;100.00;100039.16;1777186;79;21124;-64
2021/07/03 02:14:25;;;;;;;15.53;5.53;;;;;;;18.05;100.00;100037.05;1781594;79;22518;-63
2021/07/03 02:17:05;;;;;;;10.03;4.87;;;;;;;18.04;100.00;100033.50;1774292;79;21243;-64
2021/07/03 02:19:33;;;;;;;9.85;4.92;;;;;;;18.04;100.00;100031.27;1779413;79;21410;-63
2021/07/03 02:22:03;;;;;;;16.93;6.45;;;;;;;18.09;100.00;100030.91;1766252;79;21727;-64
2021/07/03 02:24:32;;;;;;;13.08;6.00;;;;;;;18.16;100.00;100028.08;1771975;79;21045;-64
2021/07/03 02:26:58;;;;;;;11.63;5.00;;;;;;;18.26;100.00;100018.24;1778766;79;21073;-65
2021/07/03 02:29:26;;;;;;;9.88;4.85;;;;;;;18.39;100.00;100017.25;1780316;79;21395;-65
2021/07/03 02:31:54;;;;;;;12.07;4.80;;;;;;;18.53;100.00;100022.45;1778058;79;20910;-57
2021/07/03 02:34:21;;;;;;;10.82;5.03;;;;;;;18.72;100.00;100031.83;1760855;79;21075;-57
2021/07/03 02:36:47;;;;;;;8.85;4.62;;;;;;;18.91;100.00;100028.47;1787343;79;20999;-57
2021/07/03 02:39:14;;;;;;;11.00;4.30;;;;;;;19.08;100.00;100027.10;1788260;78;21034;-57
2021/07/03 02:41:43;;;;;;;8.43;4.67;;;;;;;19.21;100.00;100035.09;1782351;79;21007;-60
2021/07/03 02:44:09;;;;;;;10.68;4.78;;;;;;;19.29;100.00;100038.54;1787212;79;21559;-56
2021/07/03 02:46:36;;;;;;;12.07;5.45;;;;;;;19.36;100.00;100035.70;1798158;78;20932;-58
2021/07/03 02:49:03;;;;;;;17.52;5.10;;;;;;;19.46;100.00;100035.28;1778376;78;21002;-58
2021/07/03 02:51:32;;;;;;;7.35;4.62;;;;;;;19.51;99.42;100028.11;1768617;79;21575;-57
2021/07/03 02:54:02;;;;;;;16.40;5.62;;;;;;;19.55;98.42;100027.33;1783883;79;20957;-57
2021/07/03 02:56:29;;;;;;;16.15;4.97;;;;;;;19.57;98.08;100028.94;1778708;79;21074;-57
2021/07/03 02:58:56;;;;;;;9.73;4.95;;;;;;;19.60;97.88;100029.19;1777811;78;20938;-57
2021/07/03 03:01:23;;;;;;;16.37;5.22;;;;;;;19.65;97.64;100032.38;1792550;78;21733;-57
2021/07/03 03:03:50;;;;;;;10.80;5.60;;;;;;;19.71;97.22;100037.28;1728081;80;21799;-57
2021/07/03 03:06:16;;;;;;;17.00;5.30;;;;;;;19.75;96.83;100040.61;1735009;82;20909;-59
2021/07/03 03:08:45;;;;;;;8.58;5.28;;;;;;;19.81;96.45;100052.83;1725670;80;21083;-58
2021/07/03 03:11:14;;;;;;;8.63;5.20;;;;;;;19.85;96.06;100040.69;1786162;79;20948;-58
2021/07/03 03:13:42;;;;;;;12.58;4.78;;;;;;;19.91;95.94;100046.98;1775586;79;21479;-58
2021/07/03 03:16:09;;;;;;;10.78;5.10;;;;;;;20.00;95.56;100043.97;1769534;78;21759;-65
2021/07/03 03:18:37;;;;;;;13.55;5.40;;;;;;;20.12;95.31;100046.12;1771482;79;21577;-65
2021/07/03 03:21:04;;;;;;;14.10;5.37;;;;;;;20.24;94.79;100044.20;1778688;79;21439;-65
2021/07/03 03:23:31;;;;;;;13.25;6.35;;;;;;;20.38;94.21;100038.42;1786245;78;21011;-65
2021/07/03 03:25:58;;;;;;;14.00;7.90;;;;;;;20.51;93.64;100039.55;1766889;79;21457;-64
2021/07/03 03:28:26;;;;;;;12.50;6.70;;;;;;;20.60;92.85;100042.81;1784767;78;21785;-65
2021/07/03 03:30:53;;;;;;;10.03;6.50;;;;;;;20.69;92.18;100041.64;1775383;78;21412;-65
2021/07/03 03:33:24;;;;;;;14.10;6.42;;;;;;;20.79;91.74;100040.33;1790650;78;20971;-56
2021/07/03 03:35:51;;;;;;;6.75;5.28;;;;;;;20.90;90.93;100038.88;1796114;77;20944;-56
2021/07/03 03:38:19;;;;;;;14.10;6.58;;;;;;;20.97;89.98;100035.95;1803502;77;21566;-57
2021/07/03 03:40:46;;;;;;;8.25;5.95;;;;;;;21.06;89.59;100032.89;1798872;77;21420;-56
2021/07/03 03:43:14;;;;;;;10.45;6.60;;;;;;;21.17;88.96;100043.69;1777555;79;21022;-59
2021/07/03 03:45:42;;;;;;;10.78;6.22;;;;;;;21.26;88.25;100041.11;1805754;78;21480;-57
2021/07/03 03:48:09;;;;;;;14.95;6.28;;;;;;;21.33;87.87;100037.69;1766735;79;20960;-57
2021/07/03 03:50:40;;;;;;;12.43;6.58;;;;;;;21.44;87.29;100038.05;1746766;80;20924;-57
2021/07/03 03:53:08;;;;;;;10.90;6.83;;;;;;;21.51;86.59;100039.72;1728998;81;21557;-57
2021/07/03 03:55:34;;;;;;;14.55;6.67;;;;;;;21.57;86.12;100036.41;1760588;79;21136;-67
2021/07/03 03:58:02;;;;;;;10.75;7.40;;;;;;;21.67;85.86;100035.08;1775229;79;21390;-64
2021/07/03 04:00:29;;;;;;;14.03;7.90;;;;;;;21.77;85.23;100043.27;1745082;80;21996;-58
2021/07/03 04:02:58;;;;;;;14.93;7.50;;;;;;;21.85;84.50;100048.85;1747134;80;20934;-59
2021/07/03 04:05:26;;;;;;;13.53;6.80;;;;;;;21.91;84.00;100051.52;1736836;79;21427;-59
2021/07/03 04:07:54;;;;;;;13.60;7.65;;;;;;;21.93;83.94;100049.50;1777015;79;21035;-59
2021/07/03 04:10:22;;;;;;;10.58;7.20;;;;;;;21.96;83.38;100050.56;1729593;81;21646;-57
2021/07/03 04:12:50;;;;;;;11.85;7.00;;;;;;;21.95;83.28;100048.84;1714776;80;21407;-59
2021/07/03 04:15:17;;;;;;;14.87;6.85;;;;;;;21.96;83.26;100051.93;1724375;81;20962;-57
2021/07/03 04:17:43;;;;;;;12.03;6.95;;;;;;;21.99;83.28;100051.64;1729575;81;21761;-57
2021/07/03 04:20:10;;;;;;;14.73;6.72;;;;;;;22.03;83.10;100050.86;1800921;77;21000;-57
2021/07/03 04:22:37;;;;;;;16.67;7.15;;;;;;;22.10;82.84;100055.23;1805116;77;21060;-57
2021/07/03 04:25:05;;;;;;;17.98;7.28;;;;;;;22.17;82.67;100060.45;1803619;77;21009;-58
2021/07/03 04:27:32;;;;;;;14.83;8.15;;;;;;;22.26;82.46;100054.13;1815744;77;21486;-58
2021/07/03 04:29:58;;;;;;;9.03;7.28;;;;;;;22.35;81.98;100050.15;1805883;77;21910;-58
2021/07/03 04:32:25;;;;;;;9.00;7.50;;;;;;;22.40;81.45;100059.62;1807399;78;21873;-59
2021/07/03 04:34:53;;;;;;;10.38;7.55;;;;;;;22.44;81.36;100057.47;1795833;77;21028;-57
2021/07/03 04:37:19;;;;;;;14.90;7.95;;;;;;;22.48;81.27;100065.75;1779650;79;21028;-57
2021/07/03 04:39:46;;;;;;;11.65;7.72;;;;;;;22.50;81.41;100065.09;1779514;79;21120;-58
2021/07/03 04:42:13;;;;;;;13.95;7.75;;;;;;;22.59;81.39;100069.66;1779308;79;21149;-59
2021/07/03 04:44:39;;;;;;;9.93;7.50;;;;;;;22.68;81.22;100068.42;1776746;79;21095;-59
2021/07/03 04:47:08;;;;;;;9.95;7.92;;;;;;;22.78;80.70;100071.13;1778543;79;21414;-59
2021/07/03 04:49:34;;;;;;;14.98;8.30;;;;;;;22.83;80.58;100062.80;1777169;79;20980;-57
2021/07/03 04:52:02;;;;;;;14.45;8.88;;;;;;;22.91;80.03;100070.25;1786320;79;21441;-58
2021/07/03 04:54:29;;;;;;;17.98;8.68;;;;;;;22.98;79.95;100065.05;1773789;79;21494;-58
2021/07/03 04:57:06;;;;;;;14.13;8.75;;;;;;;23.06;79.39;100059.67;1778793;79;21005;-59
2021/07/03 04:59:24;;;;;;;18.57;9.58;;;;;;;23.11;78.72;100065.56;1779366;79;20909;-60
2021/07/03 05:01:51;;;;;;;28.30;9.88;;;;;;;23.14;78.20;100069.36;1775314;79;20914;-58
2021/07/03 05:04:17;;;;;;;16.30;9.78;;;;;;;23.09;78.35;100062.09;1777021;79;20908;-57
2021/07/03 05:06:44;;;;;;;13.18;9.13;;;;;;;23.10;78.29;100061.11;1775458;79;21094;-57
2021/07/03 05:09:10;;;;;;;13.95;9.10;;;;;;;23.12;78.48;100059.58;1776233;79;21027;-57
2021/07/03 05:11:36;;;;;;;15.80;8.65;;;;;;;23.17;78.39;100054.01;1776484;79;21381;-63
2021/07/03 05:14:05;;;;;;;13.65;8.85;;;;;;;23.25;78.03;100053.28;1773730;79;20988;-66
2021/07/03 05:16:32;;;;;;;11.10;8.80;;;;;;;23.35;77.72;100060.55;1779847;79;21469;-65
2021/07/03 05:18:59;;;;;;;11.55;8.90;;;;;;;23.42;77.49;100057.05;1775032;79;22203;-65
2021/07/03 05:21:26;;;;;;;17.57;8.80;;;;;;;23.51;77.35;100066.20;1778888;79;20964;-66
2021/07/03 05:23:52;;;;;;;12.18;9.08;;;;;;;23.61;77.11;100060.66;1775773;79;21208;-66
2021/07/03 05:26:19;;;;;;;14.43;9.73;;;;;;;23.79;76.54;100069.38;1775865;79;21474;-65
2021/07/03 05:28:46;;;;;;;12.13;9.18;;;;;;;23.90;76.02;100066.38;1770497;79;21052;-65
2021/07/03 05:31:13;;;;;;;13.70;8.70;;;;;;;23.99;76.00;100061.34;1773464;79;21580;-63
2021/07/03 05:33:39;;;;;;;17.00;9.05;;;;;;;24.11;75.80;100063.85;1782728;79;21021;-64
2021/07/03 05:36:06;;;;;;;16.75;8.75;;;;;;;24.26;75.28;100065.00;1806383;77;21449;-64
2021/07/03 05:38:40;;;;;;;14.75;8.70;;;;;;;24.45;74.58;100074.04;1813276;77;21353;-65
2021/07/03 05:41:01;;;;;;;14.73;8.40;;;;;;;24.59;73.85;100073.42;1817941;77;20959;-65
2021/07/03 05:43:31;;;;;;;12.88;8.73;;;;;;;24.77;73.10;100067.05;1775450;78;21077;-66
2021/07/03 05:45:57;;;;;;;12.07;8.78;;;;;;;24.93;71.89;100069.53;1774630;79;20987;-65
2021/07/03 05:48:24;;;;;;;13.50;8.25;;;;;;;25.05;71.24;100073.67;1737175;80;20935;-66
2021/07/03 05:50:51;;;;;;;18.23;9.55;;;;;;;25.12;70.27;100065.16;1814906;77;20945;-66
2021/07/03 05:53:17;;;;;;;14.98;8.73;;;;;;;25.05;70.04;100068.72;1815436;77;20963;-67
2021/07/03 05:55:44;;;;;;;15.70;8.88;;;;;;;24.97;69.75;100067.64;1821436;77;21483;-66
2021/07/03 05:58:10;;;;;;;13.58;9.23;;;;;;;24.92;70.14;100070.55;1825832;77;20907;-66
2021/07/03 06:00:36;;;;;;;11.35;8.28;;;;;;;24.86;70.23;100069.32;1822128;77;21924;-65
2021/07/03 06:03:03;;;;;;;12.33;8.30;;;;;;;24.84;70.78;100061.77;1823699;77;21016;-66
2021/07/03 06:05:29;;;;;;;12.80;8.35;;;;;;;24.89;70.63;100066.25;1817378;77;21031;-66
2021/07/03 06:07:56;;;;;;;18.55;9.48;;;;;;;24.95;70.62;100067.48;1824038;77;21746;-67
2021/07/03 06:10:23;;;;;;;12.25;9.28;;;;;;;25.02;70.97;100065.78;1826981;77;21328;-65
2021/07/03 06:12:49;;;;;;;16.37;9.08;;;;;;;25.08;70.52;100063.74;1821760;77;20900;-66
2021/07/03 06:15:17;;;;;;;16.57;9.45;;;;;;;25.10;70.45;100053.50;1817186;77;21022;-65
2021/07/03 06:17:44;;;;;;;14.58;9.05;;;;;;;25.18;70.37;100059.50;1818508;77;21030;-66
2021/07/03 06:20:11;;;;;;;17.92;8.95;;;;;;;25.24;70.45;100052.00;1819006;77;21096;-65
2021/07/03 06:22:38;;;;;;;12.03;8.53;;;;;;;25.31;69.25;100059.02;1817142;77;20908;-65
2021/07/03 06:25:07;;;;;;;16.65;8.23;;;;;;;25.35;68.71;100056.81;1822538;77;20868;-58
2021/07/03 06:27:34;;;;;;;18.65;9.25;;;;;;;25.40;68.84;100051.17;1812811;77;20987;-58
2021/07/03 06:30:01;;;;;;;13.53;9.38;;;;;;;25.50;69.08;100048.80;1817860;77;21176;-58
2021/07/03 06:32:27;;;;;;;15.30;8.55;;;;;;;25.60;68.43;100055.02;1826700;77;21490;-58
2021/07/03 06:34:54;;;;;;;13.88;8.83;;;;;;;25.63;68.64;100048.31;1821332;77;21010;-59
2021/07/03 06:37:20;;;;;;;18.12;9.70;;;;;;;25.71;68.42;100046.44;1819942;77;21533;-59
2021/07/03 06:39:47;;;;;;;20.68;9.80;;;;;;;25.79;67.87;100043.38;1815230;77;20974;-58
2021/07/03 06:42:13;;;;;;;18.62;9.65;;;;;;;25.82;67.41;100045.77;1817288;77;21023;-59
2021/07/03 06:44:42;;;;;;;11.30;9.35;;;;;;;25.85;67.28;100037.19;1818249;77;21417;-58
2021/07/03 06:47:09;;;;;;;17.52;9.30;;;;;;;25.88;66.54;100039.59;1820424;77;20995;-58
2021/07/03 06:49:36;;;;;;;11.93;8.68;;;;;;;25.90;66.17;100040.27;1814189;77;20932;-58
2021/07/03 06:52:03;;;;;;;12.25;9.08;;;;;;;25.93;66.48;100034.96;1829679;77;20943;-60
2021/07/03 06:54:30;;;;;;;12.47;8.50;;;;;;;25.99;66.00;100031.02;1822025;77;20905;-58
2021/07/03 06:56:59;;;;;;;14.70;9.40;;;;;;;26.13;65.43;100029.46;1782455;78;20869;-57
2021/07/03 06:59:27;;;;;;;23.25;8.30;;;;;;;26.28;64.57;100032.38;1822631;77;20971;-58
2021/07/03 07:01:56;;;;;;;11.45;8.63;;;;;;;26.40;64.02;100031.50;1815539;77;21384;-57
2021/07/03 07:04:23;;;;;;;11.65;8.43;;;;;;;26.48;63.24;100033.87;1815890;77;21055;-58
2021/07/03 07:06:55;;;;;;;12.98;8.03;;;;;;;26.51;63.29;100037.14;1811881;77;21374;-58
2021/07/03 07:09:24;;;;;;;13.05;8.68;;;;;;;26.57;62.83;100033.67;1817956;77;21726;-58
2021/07/03 07:11:52;;;;;;;19.57;8.90;;;;;;;26.71;62.84;100033.99;1829703;77;21478;-58
2021/07/03 07:14:18;;;;;;;12.65;8.23;;;;;;;26.84;62.71;100031.52;1826551;77;21355;-57
2021/07/03 07:16:47;;;;;;;10.08;7.65;;;;;;;26.95;62.26;100031.67;1823426;77;21008;-57
2021/07/03 07:19:13;;;;;;;13.38;8.48;;;;;;;27.09;61.91;100036.09;1819037;77;21491;-58
2021/07/03 07:21:40;;;;;;;13.83;8.23;;;;;;;27.23;61.37;100033.95;1819237;77;21070;-60
2021/07/03 07:24:08;;;;;;;9.50;8.00;;;;;;;27.34;60.82;100025.81;1814211;77;21051;-58
2021/07/03 07:26:34;;;;;;;12.33;8.85;;;;;;;27.41;60.13;100018.53;1817447;77;21041;-57
2021/07/03 07:29:00;;;;;;;13.90;8.00;;;;;;;27.45;60.36;100014.38;1821497;77;21410;-58
2021/07/03 07:31:28;;;;;;;9.48;7.60;;;;;;;27.52;60.06;100016.41;1813860;77;21626;-58
2021/07/03 07:33:54;;;;;;;13.38;8.70;;;;;;;27.60;59.51;100020.50;1821373;77;21076;-58
2021/07/03 07:36:23;;;;;;;20.85;8.18;;;;;;;27.68;58.90;100026.47;1804986;77;22381;-59
2021/07/03 07:38:49;;;;;;;10.85;8.03;;;;;;;27.62;59.26;100006.03;1788774;79;21536;-58
2021/07/03 07:41:16;;;;;;;13.70;8.48;;;;;;;27.66;59.34;100017.55;1784857;79;20912;-59
2021/07/03 07:43:43;;;;;;;25.82;8.85;;;;;;;27.74;59.43;100022.47;1787039;79;21001;-57
2021/07/03 07:46:10;;;;;;;21.70;8.18;;;;;;;27.73;58.93;100028.98;1786530;78;21087;-59
2021/07/03 07:48:38;;;;;;;11.15;9.10;;;;;;;27.65;59.47;100022.17;1787360;78;21015;-59
2021/07/03 07:51:05;;;;;;;16.40;9.23;;;;;;;27.59;59.23;100021.55;1789321;79;21156;-59
2021/07/03 07:53:31;;;;;;;10.00;7.50;;;;;;;27.49;59.47;100026.38;1781456;79;21122;-61
2021/07/03 07:55:58;;;;;;;10.32;8.30;;;;;;;27.40;57.45;100036.08;1786225;79;21105;-59
2021/07/03 07:58:24;;;;;;;11.75;8.03;;;;;;;27.24;59.37;100039.80;1786914;78;21744;-66
2021/07/03 08:00:53;;;;;;;9.68;7.80;;;;;;;27.15;60.40;100033.48;1792630;79;21001;-61
2021/07/03 08:03:20;;;;;;;13.45;8.30;;;;;;;27.13;60.27;100043.81;1804432;78;20959;-59
2021/07/03 08:05:46;;;;;;;15.75;8.35;;;;;;;27.10;60.56;100047.43;1786856;78;21399;-59
2021/07/03 08:08:13;;;;;;;10.82;8.93;;;;;;;27.07;59.98;100045.88;1783319;79;21035;-58
2021/07/03 08:10:40;;;;;;;14.80;8.53;;;;;;;26.98;60.47;100045.59;1782048;78;21439;-59
2021/07/03 08:13:07;;;;;;;9.63;8.63;;;;;;;26.88;61.45;100049.43;1791180;79;21014;-58
2021/07/03 08:15:34;;;;;;;9.35;7.80;;;;;;;26.85;61.86;100044.26;1791526;79;21465;-58
2021/07/03 08:18:04;;;;;;;11.85;7.72;;;;;;;26.88;61.65;100057.68;1782272;79;21038;-59
2021/07/03 08:20:31;;;;;;;10.30;7.58;;;;;;;26.86;60.39;100057.00;1778400;79;20908;-64
2021/07/03 08:22:58;;;;;;;13.60;7.20;;;;;;;26.84;59.66;100060.38;1783612;78;21760;-66
2021/07/03 08:25:25;;;;;;;16.20;7.70;;;;;;;26.84;60.19;100062.30;1786173;78;20931;-65
2021/07/03 08:27:53;;;;;;;12.20;7.87;;;;;;;26.91;60.49;100064.70;1782183;79;21370;-64
2021/07/03 08:30:19;;;;;;;11.35;7.65;;;;;;;26.99;60.80;100069.31;1789216;79;20953;-66
2021/07/03 08:32:46;;;;;;;15.08;7.75;;;;;;;27.11;60.31;100063.77;1790703;78;20920;-65
2021/07/03 08:35:14;;;;;;;11.97;7.50;;;;;;;27.20;59.78;100065.97;1789091;79;21082;-67
2021/07/03 08:37:42;;;;;;;12.78;8.10;;;;;;;27.40;59.27;100068.23;1800317;77;20959;-67
2021/07/03 08:40:11;;;;;;;20.82;7.42;;;;;;;27.54;59.31;100071.63;1810050;77;20885;-66
2021/07/03 08:42:38;;;;;;;11.55;7.35;;;;;;;27.64;58.81;100071.40;1807771;77;20909;-66
2021/07/03 08:45:06;;;;;;;19.05;8.23;;;;;;;27.78;58.53;100078.55;1807332;77;20892;-65
2021/07/03 08:47:32;;;;;;;12.15;7.50;;;;;;;27.83;58.43;100073.33;1787872;78;21411;-65
2021/07/03 08:50:00;;;;;;;11.25;7.62;;;;;;;27.85;58.72;100064.36;1803626;77;21460;-66
2021/07/03 08:52:27;;;;;;;19.60;8.80;;;;;;;27.86;58.12;100067.45;1813959;77;20934;-66
2021/07/03 08:55:06;;;;;;;16.35;10.03;;;;;;;27.87;58.18;100071.41;1807483;77;20996;-65
2021/07/03 08:57:42;;;;;;;12.50;9.18;;;;;;;27.78;58.45;100074.41;1807463;77;21004;-64
2021/07/03 09:00:09;;;;;;;32.78;25.70;;;;;;;27.59;59.15;100082.11;1815342;77;21360;-64
2021/07/03 09:02:42;;;;;;;18.87;10.35;;;;;;;27.50;59.84;100084.52;1807237;78;21501;-66
2021/07/03 09:05:31;;;;;;;12.28;8.35;;;;;;;27.38;60.19;100080.82;1807263;77;21370;-65
2021/07/03 09:08:04;;;;;;;8.88;7.90;;;;;;;27.26;60.48;100079.50;1799639;77;21572;-66
2021/07/03 09:10:31;;;;;;;12.98;8.48;;;;;;;27.17;59.43;100075.42;1806997;77;21464;-65
2021/07/03 09:13:01;;;;;;;9.85;7.10;;;;;;;27.09;60.91;100068.59;1804218;77;21489;-66
2021/07/03 09:15:31;;;;;;;14.05;7.42;;;;;;;27.13;60.66;100067.20;1804614;77;21005;-65
2021/07/03 09:18:12;;;;;;;18.82;12.60;;;;;;;27.29;60.53;100071.75;1806952;77;20892;-65
2021/07/03 09:20:51;;;;;;;24.65;20.50;;;;;;;27.37;59.04;100093.38;1810791;77;21028;-67
2021/07/03 09:23:24;;;;;;;16.75;10.32;;;;;;;27.31;60.10;100088.09;1805547;77;21059;-65
2021/07/03 09:25:54;;;;;;;14.93;8.00;;;;;;;27.23;60.35;100078.48;1808494;77;21071;-65
2021/07/03 09:28:27;;;;;;;7.83;7.03;;;;;;;27.23;60.11;100086.23;1803607;77;20991;-67
2021/07/03 09:30:56;;;;;;;12.73;8.00;;;;;;;27.24;59.27;100089.83;1804762;77;20961;-66
2021/07/03 09:33:27;;;;;;;14.35;11.40;;;;;;;27.20;58.54;100082.98;1812115;77;21487;-67
2021/07/03 09:36:08;;;;;;;39.10;30.62;;;;;;;27.06;57.91;100079.93;1808056;77;21588;-66
2021/07/03 09:38:50;;;;;;;33.85;24.82;;;;;;;26.81;59.24;100078.62;1792686;79;21590;-66
2021/07/03 09:41:38;;;;;;;11.80;8.05;;;;;;;26.70;59.54;100069.39;1789235;79;21030;-66
2021/07/03 09:44:10;;;;;;;7.85;6.35;;;;;;;26.69;59.53;100075.92;1783381;79;21571;-67
2021/07/03 09:46:49;;;;;;;11.05;6.50;;;;;;;26.72;58.30;100077.78;1789339;79;21476;-66
2021/07/03 09:49:21;;;;;;;7.72;6.35;;;;;;;26.69;57.21;100089.14;1785072;79;21542;-67
2021/07/03 09:51:52;;;;;;;13.03;6.50;;;;;;;26.65;58.12;100073.19;1793141;78;21511;-66
2021/07/03 09:54:21;;;;;;;15.03;6.87;;;;;;;26.79;59.03;100072.44;1785214;78;20975;-57
2021/07/03 09:56:48;;;;;;;8.63;6.72;;;;;;;26.98;58.21;100076.72;1782456;79;20857;-57
2021/07/03 09:59:14;;;;;;;7.67;6.25;;;;;;;27.08;57.87;100066.01;1782810;78;21038;-59
2021/07/03 10:01:42;;;;;;;10.30;6.33;;;;;;;27.19;57.50;100079.88;1781527;78;21119;-59
2021/07/03 10:04:10;;;;;;;10.55;6.80;;;;;;;27.31;57.56;100077.09;1789238;78;21429;-58
2021/07/03 10:07:06;;;;;;;20.02;14.35;;;;;;;27.48;57.68;100086.60;1783577;78;20995;-59
2021/07/03 10:09:58;;;;;;;22.62;18.92;;;;;;;27.55;57.00;100091.77;1780227;79;21066;-59
2021/07/03 10:12:30;;;;;;;8.80;7.47;;;;;;;27.52;56.68;100098.98;1708416;82;21089;-58
2021/07/03 10:14:56;;;;;;;11.90;6.40;;;;;;;27.42;55.52;100101.44;1702959;82;21074;-59
2021/07/03 10:17:26;;;;;;;9.75;6.15;;;;;;;27.34;55.44;100100.61;1737718;79;21920;-66
2021/07/03 10:19:53;;;;;;;9.60;5.97;;;;;;;27.34;55.48;100100.61;1792862;79;20952;-67
2021/07/03 10:22:32;;;;;;;10.08;6.30;;;;;;;27.43;55.04;100097.64;1789465;78;21798;-67
2021/07/03 10:25:12;;;;;;;7.55;6.12;;;;;;;27.55;55.41;100097.28;1784591;79;20941;-59
2021/07/03 10:27:54;;;;;;;7.33;6.12;;;;;;;27.70;55.97;100102.32;1786959;78;21422;-58
2021/07/03 10:30:28;;;;;;;8.63;6.12;;;;;;;27.69;55.44;100095.10;1786499;78;21097;-58
2021/07/03 10:33:09;;;;;;;8.05;5.58;;;;;;;27.58;55.25;100091.41;1780752;78;21015;-59
2021/07/03 10:35:49;;;;;;;10.40;6.17;;;;;;;27.61;55.33;100077.27;1786550;78;20975;-59
2021/07/03 10:38:26;;;;;;;6.70;5.25;;;;;;;27.74;55.24;100078.91;1789307;78;20913;-66
2021/07/03 10:40:57;;;;;;;6.72;5.55;;;;;;;27.91;54.56;100082.06;1777465;79;21032;-65
2021/07/03 10:43:24;;;;;;;11.45;5.17;;;;;;;28.05;53.67;100081.77;1782857;78;21116;-66
2021/07/03 10:45:53;;;;;;;6.83;4.83;;;;;;;28.06;53.46;100071.92;1747557;80;20985;-66
2021/07/03 10:48:25;;;;;;;6.25;4.83;;;;;;;28.13;53.38;100066.03;1741835;80;21700;-66
2021/07/03 10:50:55;;;;;;;5.65;4.75;;;;;;;28.26;52.57;100069.55;1741134;80;21119;-59
2021/07/03 10:53:30;;;;;;;12.28;5.72;;;;;;;28.29;51.66;100067.80;1747971;80;20943;-60
2021/07/03 10:56:12;;;;;;;9.43;5.30;;;;;;;28.17;52.59;100072.03;1742785;80;21140;-59
2021/07/03 10:58:42;;;;;;;7.47;4.87;;;;;;;27.97;52.96;100069.79;1730718;81;20917;-59
2021/07/03 11:01:11;;;;;;;8.68;4.65;;;;;;;27.86;53.26;100067.45;1749211;80;21008;-61
2021/07/03 11:03:46;;;;;;;5.80;4.12;;;;;;;27.84;52.80;100070.38;1750172;80;21161;-59
2021/07/03 11:06:17;;;;;;;6.25;4.17;;;;;;;27.80;51.73;100069.58;1751933;80;20870;-62
2021/07/03 11:08:44;;;;;;;4.83;4.00;;;;;;;27.78;51.50;100073.03;1741371;81;21603;-60
2021/07/03 11:11:13;;;;;;;4.90;4.35;;;;;;;27.72;52.07;100080.97;1734761;81;20939;-60
2021/07/03 11:13:40;;;;;;;4.90;4.30;;;;;;;27.70;52.71;100069.28;1701644;82;20914;-60
2021/07/03 11:16:11;;;;;;;4.78;4.37;;;;;;;27.72;52.96;100069.95;1786798;79;21008;-60
2021/07/03 11:18:41;;;;;;;6.12;4.20;;;;;;;27.84;52.67;100080.55;1784233;79;20981;-58
2021/07/03 11:21:09;;;;;;;4.35;3.95;;;;;;;27.96;51.45;100076.31;1784508;79;21802;-60
2021/07/03 11:23:36;;;;;;;4.97;3.87;;;;;;;27.97;50.93;100074.42;1781051;78;20980;-59